sensor_id;sensor_type;location;lat;lon;timestamp;temperature;humidity
24262;DHT22;12385;51.412;5.540;2023-04-25T00:01:03;8.00;99.90
24262;DHT22;12385;51.412;5.540;2023-04-25T00:03:30;8.00;99.90
24262;DHT22;12385;51.412;5.540;2023-04-25T00:06:00;8.00;99.90
24262;DHT22;12385;51.412;5.540;2023-04-25T00:08:28;8.00;99.90
24262;DHT22;12385;51.412;5.540;2023-04-25T00:10:55;8.00;99.90
24262;DHT22;12385;51.412;5.540;2023-04-25T00:13:20;8.00;99.90
24262;DHT22;12385;51.412;5.540;2023-04-25T00:15:47;8.10;99.90
24262;DHT22;12385;51.412;5.540;2023-04-25T00:18:13;8.10;99.90
24262;DHT22;12385;51.412;5.540;2023-04-25T00:20:39;8.10;99.90
24262;DHT22;12385;51.412;5.540;2023-04-25T00:23:05;8.10;99.90
24262;DHT22;12385;51.412;5.540;2023-04-25T00:25:31;8.00;99.90
24262;DHT22;12385;51.412;5.540;2023-04-25T00:27:57;8.10;99.90
24262;DHT22;12385;51.412;5.540;2023-04-25T00:30:22;8.00;99.90
24262;DHT22;12385;51.412;5.540;2023-04-25T00:32:48;8.00;99.90
24262;DHT22;12385;51.412;5.540;2023-04-25T00:35:16;8.00;99.90
24262;DHT22;12385;51.412;5.540;2023-04-25T00:37:41;8.00;99.90
24262;DHT22;12385;51.412;5.540;2023-04-25T00:40:07;8.00;99.90
24262;DHT22;12385;51.412;5.540;2023-04-25T00:42:35;8.00;99.90
24262;DHT22;12385;51.412;5.540;2023-04-25T00:45:05;7.90;99.90
24262;DHT22;12385;51.412;5.540;2023-04-25T00:47:32;7.90;99.90
24262;DHT22;12385;51.412;5.540;2023-04-25T00:49:58;7.80;99.90
24262;DHT22;12385;51.412;5.540;2023-04-25T00:52:23;7.80;99.90
24262;DHT22;12385;51.412;5.540;2023-04-25T00:54:49;7.70;99.90
24262;DHT22;12385;51.412;5.540;2023-04-25T00:57:16;7.60;99.90
24262;DHT22;12385;51.412;5.540;2023-04-25T00:59:45;7.50;99.90
24262;DHT22;12385;51.412;5.540;2023-04-25T01:02:11;7.50;99.90
24262;DHT22;12385;51.412;5.540;2023-04-25T01:04:39;7.40;99.90
24262;DHT22;12385;51.412;5.540;2023-04-25T01:07:05;7.30;99.90
24262;DHT22;12385;51.412;5.540;2023-04-25T01:09:30;7.30;99.90
24262;DHT22;12385;51.412;5.540;2023-04-25T01:11:57;7.30;99.90
24262;DHT22;12385;51.412;5.540;2023-04-25T01:14:23;7.30;99.90
24262;DHT22;12385;51.412;5.540;2023-04-25T01:16:49;7.30;99.90
24262;DHT22;12385;51.412;5.540;2023-04-25T01:19:17;7.30;99.90
24262;DHT22;12385;51.412;5.540;2023-04-25T01:21:43;7.20;99.90
24262;DHT22;12385;51.412;5.540;2023-04-25T01:24:09;7.20;99.90
24262;DHT22;12385;51.412;5.540;2023-04-25T01:26:36;7.20;99.90
24262;DHT22;12385;51.412;5.540;2023-04-25T01:29:03;7.20;99.90
24262;DHT22;12385;51.412;5.540;2023-04-25T01:31:29;7.10;99.90
24262;DHT22;12385;51.412;5.540;2023-04-25T01:33:55;7.10;99.90
24262;DHT22;12385;51.412;5.540;2023-04-25T01:36:21;7.10;99.90
24262;DHT22;12385;51.412;5.540;2023-04-25T01:38:47;7.00;99.90
24262;DHT22;12385;51.412;5.540;2023-04-25T01:41:14;7.00;99.90
24262;DHT22;12385;51.412;5.540;2023-04-25T01:43:40;6.90;99.90
24262;DHT22;12385;51.412;5.540;2023-04-25T01:46:06;6.90;99.90
24262;DHT22;12385;51.412;5.540;2023-04-25T01:48:31;6.80;99.90
24262;DHT22;12385;51.412;5.540;2023-04-25T01:50:57;6.80;99.90
24262;DHT22;12385;51.412;5.540;2023-04-25T01:53:24;6.80;99.90
24262;DHT22;12385;51.412;5.540;2023-04-25T01:55:50;6.70;99.90
24262;DHT22;12385;51.412;5.540;2023-04-25T01:58:16;6.80;99.90
24262;DHT22;12385;51.412;5.540;2023-04-25T02:00:42;6.80;99.90
24262;DHT22;12385;51.412;5.540;2023-04-25T02:03:08;6.80;99.90
24262;DHT22;12385;51.412;5.540;2023-04-25T02:05:35;6.80;99.90
24262;DHT22;12385;51.412;5.540;2023-04-25T02:08:02;6.80;99.90
24262;DHT22;12385;51.412;5.540;2023-04-25T02:10:28;6.80;99.90
24262;DHT22;12385;51.412;5.540;2023-04-25T02:12:54;6.80;99.90
24262;DHT22;12385;51.412;5.540;2023-04-25T02:15:19;6.80;99.90
24262;DHT22;12385;51.412;5.540;2023-04-25T02:17:50;6.70;99.90
24262;DHT22;12385;51.412;5.540;2023-04-25T02:20:19;6.80;99.90
24262;DHT22;12385;51.412;5.540;2023-04-25T02:22:45;6.70;99.90
24262;DHT22;12385;51.412;5.540;2023-04-25T02:25:11;6.80;99.90
24262;DHT22;12385;51.412;5.540;2023-04-25T02:27:37;6.80;99.90
24262;DHT22;12385;51.412;5.540;2023-04-25T02:30:04;6.80;99.90
24262;DHT22;12385;51.412;5.540;2023-04-25T02:32:30;6.80;99.90
24262;DHT22;12385;51.412;5.540;2023-04-25T02:34:55;6.90;99.90
24262;DHT22;12385;51.412;5.540;2023-04-25T02:37:24;6.90;99.90
24262;DHT22;12385;51.412;5.540;2023-04-25T02:39:50;6.90;99.90
24262;DHT22;12385;51.412;5.540;2023-04-25T02:42:16;6.90;99.90
24262;DHT22;12385;51.412;5.540;2023-04-25T02:44:41;6.90;99.90
24262;DHT22;12385;51.412;5.540;2023-04-25T02:47:07;6.90;99.90
24262;DHT22;12385;51.412;5.540;2023-04-25T02:49:32;6.90;99.90
24262;DHT22;12385;51.412;5.540;2023-04-25T02:51:59;6.90;99.90
24262;DHT22;12385;51.412;5.540;2023-04-25T02:54:25;6.90;99.90
24262;DHT22;12385;51.412;5.540;2023-04-25T02:56:50;6.90;99.90
24262;DHT22;12385;51.412;5.540;2023-04-25T02:59:16;6.90;99.90
24262;DHT22;12385;51.412;5.540;2023-04-25T03:01:41;6.90;99.90
24262;DHT22;12385;51.412;5.540;2023-04-25T03:04:07;6.80;99.90
24262;DHT22;12385;51.412;5.540;2023-04-25T03:06:33;6.80;99.90
24262;DHT22;12385;51.412;5.540;2023-04-25T03:08:58;6.80;99.90
24262;DHT22;12385;51.412;5.540;2023-04-25T03:11:25;6.80;99.90
24262;DHT22;12385;51.412;5.540;2023-04-25T03:13:54;6.70;99.90
24262;DHT22;12385;51.412;5.540;2023-04-25T03:16:19;6.70;99.90
24262;DHT22;12385;51.412;5.540;2023-04-25T03:18:45;6.70;99.90
24262;DHT22;12385;51.412;5.540;2023-04-25T03:21:11;6.70;99.90
24262;DHT22;12385;51.412;5.540;2023-04-25T03:23:36;6.70;99.90
24262;DHT22;12385;51.412;5.540;2023-04-25T03:26:02;6.70;99.90
24262;DHT22;12385;51.412;5.540;2023-04-25T03:28:28;6.70;99.90
24262;DHT22;12385;51.412;5.540;2023-04-25T03:30:53;6.70;99.90
24262;DHT22;12385;51.412;5.540;2023-04-25T03:33:19;6.70;99.90
24262;DHT22;12385;51.412;5.540;2023-04-25T03:35:45;6.70;99.90
24262;DHT22;12385;51.412;5.540;2023-04-25T03:38:13;6.70;99.90
24262;DHT22;12385;51.412;5.540;2023-04-25T03:40:38;6.70;99.90
24262;DHT22;12385;51.412;5.540;2023-04-25T03:43:04;6.70;99.90
24262;DHT22;12385;51.412;5.540;2023-04-25T03:45:30;6.70;99.90
24262;DHT22;12385;51.412;5.540;2023-04-25T03:47:55;6.70;99.90
24262;DHT22;12385;51.412;5.540;2023-04-25T03:50:21;6.70;99.90
24262;DHT22;12385;51.412;5.540;2023-04-25T03:52:47;6.70;99.90
24262;DHT22;12385;51.412;5.540;2023-04-25T03:55:12;6.70;99.90
24262;DHT22;12385;51.412;5.540;2023-04-25T03:57:38;6.80;99.90
24262;DHT22;12385;51.412;5.540;2023-04-25T04:00:04;6.80;99.90
24262;DHT22;12385;51.412;5.540;2023-04-25T04:02:29;6.80;99.90
24262;DHT22;12385;51.412;5.540;2023-04-25T04:04:55;6.80;99.90
24262;DHT22;12385;51.412;5.540;2023-04-25T04:07:22;6.80;99.90
24262;DHT22;12385;51.412;5.540;2023-04-25T04:09:47;6.80;99.90
24262;DHT22;12385;51.412;5.540;2023-04-25T04:12:13;6.80;99.90
24262;DHT22;12385;51.412;5.540;2023-04-25T04:14:40;6.80;99.90
24262;DHT22;12385;51.412;5.540;2023-04-25T04:17:06;6.80;99.90
24262;DHT22;12385;51.412;5.540;2023-04-25T04:19:32;6.70;99.90
24262;DHT22;12385;51.412;5.540;2023-04-25T04:21:57;6.80;99.90
24262;DHT22;12385;51.412;5.540;2023-04-25T04:24:23;6.80;99.90
24262;DHT22;12385;51.412;5.540;2023-04-25T04:26:50;6.70;99.90
24262;DHT22;12385;51.412;5.540;2023-04-25T04:29:16;6.80;99.90
24262;DHT22;12385;51.412;5.540;2023-04-25T04:31:50;6.80;99.90
24262;DHT22;12385;51.412;5.540;2023-04-25T04:34:22;6.80;99.90
24262;DHT22;12385;51.412;5.540;2023-04-25T04:36:50;6.90;99.90
24262;DHT22;12385;51.412;5.540;2023-04-25T04:39:16;6.90;99.90
24262;DHT22;12385;51.412;5.540;2023-04-25T04:41:42;6.90;99.90
24262;DHT22;12385;51.412;5.540;2023-04-25T04:44:11;6.90;99.90
24262;DHT22;12385;51.412;5.540;2023-04-25T04:46:37;6.90;99.90
24262;DHT22;12385;51.412;5.540;2023-04-25T04:49:09;6.90;99.90
24262;DHT22;12385;51.412;5.540;2023-04-25T04:51:37;6.90;99.90
24262;DHT22;12385;51.412;5.540;2023-04-25T04:54:04;6.90;99.90
24262;DHT22;12385;51.412;5.540;2023-04-25T04:56:30;7.00;99.90
24262;DHT22;12385;51.412;5.540;2023-04-25T04:58:57;7.00;99.90
24262;DHT22;12385;51.412;5.540;2023-04-25T05:01:23;7.00;99.90
24262;DHT22;12385;51.412;5.540;2023-04-25T05:03:49;7.00;99.90
24262;DHT22;12385;51.412;5.540;2023-04-25T05:06:16;7.10;99.90
24262;DHT22;12385;51.412;5.540;2023-04-25T05:08:42;7.10;99.90
24262;DHT22;12385;51.412;5.540;2023-04-25T05:11:08;7.10;99.90
24262;DHT22;12385;51.412;5.540;2023-04-25T05:13:33;7.10;99.90
24262;DHT22;12385;51.412;5.540;2023-04-25T05:16:01;7.20;99.90
24262;DHT22;12385;51.412;5.540;2023-04-25T05:18:27;7.20;99.90
24262;DHT22;12385;51.412;5.540;2023-04-25T05:20:53;7.20;99.90
24262;DHT22;12385;51.412;5.540;2023-04-25T05:23:19;7.20;99.90
24262;DHT22;12385;51.412;5.540;2023-04-25T05:25:45;7.20;99.90
24262;DHT22;12385;51.412;5.540;2023-04-25T21:06:23;8.20;91.20
24262;DHT22;12385;51.412;5.540;2023-04-25T21:08:49;8.20;91.70
24262;DHT22;12385;51.412;5.540;2023-04-25T21:11:15;8.20;92.00
24262;DHT22;12385;51.412;5.540;2023-04-25T21:13:41;8.10;92.40
24262;DHT22;12385;51.412;5.540;2023-04-25T21:16:07;8.10;92.70
24262;DHT22;12385;51.412;5.540;2023-04-25T21:18:33;8.10;93.00
24262;DHT22;12385;51.412;5.540;2023-04-25T21:20:59;8.00;93.30
24262;DHT22;12385;51.412;5.540;2023-04-25T21:23:27;8.00;93.70
24262;DHT22;12385;51.412;5.540;2023-04-25T21:25:52;8.00;94.00
24262;DHT22;12385;51.412;5.540;2023-04-25T21:28:19;8.00;94.20
24262;DHT22;12385;51.412;5.540;2023-04-25T21:30:44;8.00;94.50
24262;DHT22;12385;51.412;5.540;2023-04-25T21:33:12;8.00;94.90
24262;DHT22;12385;51.412;5.540;2023-04-25T21:35:38;7.90;95.20
24262;DHT22;12385;51.412;5.540;2023-04-25T21:38:04;7.90;95.40
24262;DHT22;12385;51.412;5.540;2023-04-25T21:40:32;7.80;95.70
24262;DHT22;12385;51.412;5.540;2023-04-25T21:42:57;7.80;96.00
24262;DHT22;12385;51.412;5.540;2023-04-25T21:45:23;7.70;96.30
24262;DHT22;12385;51.412;5.540;2023-04-25T21:47:49;7.70;96.60
24262;DHT22;12385;51.412;5.540;2023-04-25T21:50:15;7.70;97.00
24262;DHT22;12385;51.412;5.540;2023-04-25T23:08:04;5.30;98.90
24262;DHT22;12385;51.412;5.540;2023-04-25T23:10:30;6.10;99.90
24262;DHT22;12385;51.412;5.540;2023-04-25T23:13:03;6.00;99.90
24262;DHT22;12385;51.412;5.540;2023-04-25T23:15:28;6.00;99.90
24262;DHT22;12385;51.412;5.540;2023-04-25T23:17:56;5.90;99.90
24262;DHT22;12385;51.412;5.540;2023-04-25T23:20:40;5.90;99.90
24262;DHT22;12385;51.412;5.540;2023-04-25T23:23:05;5.90;99.90
24262;DHT22;12385;51.412;5.540;2023-04-25T23:25:31;5.90;99.90
24262;DHT22;12385;51.412;5.540;2023-04-25T23:27:57;5.80;99.90
24262;DHT22;12385;51.412;5.540;2023-04-25T23:30:23;5.80;99.90
24262;DHT22;12385;51.412;5.540;2023-04-25T23:32:48;5.70;99.90
24262;DHT22;12385;51.412;5.540;2023-04-25T23:35:14;5.70;99.90
24262;DHT22;12385;51.412;5.540;2023-04-25T23:37:40;5.70;99.90
24262;DHT22;12385;51.412;5.540;2023-04-25T23:40:07;5.60;99.90
24262;DHT22;12385;51.412;5.540;2023-04-25T23:42:37;5.60;99.90
24262;DHT22;12385;51.412;5.540;2023-04-25T23:45:04;5.60;99.90
24262;DHT22;12385;51.412;5.540;2023-04-25T23:47:31;5.60;99.90
24262;DHT22;12385;51.412;5.540;2023-04-25T23:49:56;5.50;99.90
24262;DHT22;12385;51.412;5.540;2023-04-25T23:52:25;5.50;99.90
24262;DHT22;12385;51.412;5.540;2023-04-25T23:54:52;5.40;99.90
24262;DHT22;12385;51.412;5.540;2023-04-25T23:57:18;5.40;99.90
24262;DHT22;12385;51.412;5.540;2023-04-25T23:59:47;5.30;99.90
